Terminal Aerodrome Forecast
Issued by NWS

Home | Current Version | Previous Version | Text Only | Print | Product List | Glossary On
Versions: 1 2 3 4 5 6 7 8 9 10 11 12 13 14 15 16 17
000
FTUS43 KDVN 292300
TAFBRL
TAF
KBRL 292334Z 3000/3024 31003KT P6SM SKC
     FM301100 16006KT P6SM BKN050
     FM302200 02004KT P6SM OVC050=

USA.gov is the U.S. government's official web portal to all federal, state and local government web resources and services.